Time,TemperatureF,DewpointF,PressureIn,WindDirection,WindDirectionDegrees,WindSpeedMPH,WindSpeedGustMPH,Humidity,HourlyPrecipIn,Conditions,Clouds,dailyrainin,SoftwareType,DateUTC
2013-01-20 00:00:00,32.4,29.8,30.26,WSW,248,0.0,2.0,90,0.00,,---,0.00,VWS V14.01,2013-01-20 05:00:00,
2013-01-20 00:30:00,32.0,29.7,30.25,WSW,248,0.0,0.0,91,0.00,,---,0.00,VWS V14.01,2013-01-20 05:30:00,
2013-01-20 01:00:00,31.2,28.9,30.25,WSW,248,0.0,0.0,91,0.00,,---,0.00,VWS V14.01,2013-01-20 06:00:00,
2013-01-20 01:30:00,31.3,29.2,30.25,WSW,248,0.0,0.0,92,0.00,,---,0.00,VWS V14.01,2013-01-20 06:30:00,
2013-01-20 02:00:00,30.9,28.9,30.25,WSW,248,0.0,0.0,92,0.00,,---,0.00,VWS V14.01,2013-01-20 07:00:00,
2013-01-20 02:30:00,30.4,28.4,30.25,WSW,248,0.0,0.0,92,0.00,,---,0.00,VWS V14.01,2013-01-20 07:30:00,
2013-01-20 03:00:00,30.7,28.9,30.25,WSW,248,0.0,2.0,93,0.00,,---,0.00,VWS V14.01,2013-01-20 08:00:00,
2013-01-20 03:30:00,29.9,28.1,30.24,WSW,248,0.0,0.0,93,0.00,,---,0.00,VWS V14.01,2013-01-20 08:30:00,
2013-01-20 04:00:00,29.4,27.6,30.23,WSW,248,0.0,0.0,93,0.00,,---,0.00,VWS V14.01,2013-01-20 09:00:00,
2013-01-20 04:30:00,30.0,28.2,30.23,WSW,248,0.0,2.0,93,0.00,,---,0.00,VWS V14.01,2013-01-20 09:30:00,
2013-01-20 05:00:00,29.7,27.9,30.23,WSW,248,0.0,2.0,93,0.00,,---,0.00,VWS V14.01,2013-01-20 10:00:00,
2013-01-20 05:30:00,30.6,28.8,30.23,WSW,248,0.0,2.0,93,0.00,,---,0.00,VWS V14.01,2013-01-20 10:30:00,
2013-01-20 06:00:00,30.1,28.3,30.23,WSW,248,0.0,2.0,93,0.00,,---,0.00,VWS V14.01,2013-01-20 11:00:00,
2013-01-20 06:30:00,30.6,28.8,30.23,WSW,248,0.0,2.0,93,0.00,,---,0.00,VWS V14.01,2013-01-20 11:30:00,
2013-01-20 07:00:00,31.9,30.1,30.23,WSW,248,1.0,3.0,93,0.00,,---,0.00,VWS V14.01,2013-01-20 12:00:00,
2013-01-20 07:30:00,31.9,29.6,30.23,WSW,248,0.0,2.0,91,0.00,,---,0.00,VWS V14.01,2013-01-20 12:30:00,
2013-01-20 08:25:00,32.4,30.3,30.23,WSW,241,0.0,0.0,92,0.00,,---,0.00,VWS V14.01,2013-01-20 13:25:00,
2013-01-20 08:30:00,33.1,31.3,30.23,WSW,241,0.0,0.0,93,0.00,,---,0.00,VWS V14.01,2013-01-20 13:30:00,
2013-01-20 08:35:00,34.3,32.5,30.23,WSW,241,0.0,0.0,93,0.00,,---,0.00,VWS V14.01,2013-01-20 13:35:00,
2013-01-20 08:40:00,35.4,33.6,30.24,WSW,241,0.0,1.0,93,0.00,,---,0.00,VWS V14.01,2013-01-20 13:40:00,
2013-01-20 08:45:00,36.3,34.2,30.23,WSW,241,1.0,2.0,92,0.00,,---,0.00,VWS V14.01,2013-01-20 13:45:00,
2013-01-20 08:50:00,37.3,34.4,30.24,WSW,241,0.0,2.0,89,0.00,,---,0.00,VWS V14.01,2013-01-20 13:50:00,
2013-01-20 08:55:00,38.2,34.7,30.24,WSW,241,1.0,2.0,87,0.00,,---,0.00,VWS V14.01,2013-01-20 13:55:00,
2013-01-20 09:00:00,46.0,37.1,30.24,West,269,3.0,12.0,71,0.01,,---,0.01,VWS V14.01,2013-01-20 14:00:00,
2013-01-20 09:35:00,38.4,34.9,30.23,WSW,241,0.0,2.0,87,0.00,,---,0.00,VWS V14.01,2013-01-20 14:35:00,
2013-01-20 09:40:00,43.5,35.8,30.24,West,267,8.0,11.0,74,0.01,,---,0.01,VWS V14.01,2013-01-20 14:40:00,
2013-01-20 09:45:00,44.1,36.0,30.24,West,267,4.0,11.0,73,0.01,,---,0.01,VWS V14.01,2013-01-20 14:45:00,
2013-01-20 09:50:00,44.5,36.0,30.24,West,271,2.0,11.0,72,0.01,,---,0.01,VWS V14.01,2013-01-20 14:50:00,
2013-01-20 09:55:00,45.0,36.5,30.24,West,269,2.0,11.0,72,0.01,,---,0.01,VWS V14.01,2013-01-20 14:55:00,
2013-01-20 10:00:00,45.7,36.8,30.24,West,271,5.0,11.0,71,0.01,,---,0.01,VWS V14.01,2013-01-20 15:00:00,
2013-01-20 10:30:00,51.7,37.8,30.23,West,269,4.0,12.0,59,0.00,,---,0.01,VWS V14.01,2013-01-20 15:30:00,
2013-01-20 11:06:00,46.2,37.0,30.24,West,270,4.0,7.0,70,0.00,,---,0.01,VWS V14.01,2013-01-20 16:06:00,
2013-01-20 11:11:00,51.3,38.3,30.23,West,271,1.0,7.0,61,0.00,,---,0.01,VWS V14.01,2013-01-20 16:11:00,
2013-01-20 11:16:00,51.9,38.5,30.23,West,269,3.0,8.0,60,0.00,,---,0.01,VWS V14.01,2013-01-20 16:16:00,
2013-01-20 11:21:00,51.9,38.0,30.23,West,267,6.0,10.0,59,0.00,,---,0.01,VWS V14.01,2013-01-20 16:21:00,
2013-01-20 11:26:00,51.7,38.3,30.23,West,268,6.0,12.0,60,0.00,,---,0.01,VWS V14.01,2013-01-20 16:26:00,
2013-01-20 11:30:00,56.1,40.6,30.18,WSW,244,5.0,12.0,56,0.00,,---,0.01,VWS V14.01,2013-01-20 16:30:00,
2013-01-20 11:31:00,51.7,37.8,30.23,West,268,4.0,12.0,59,0.00,,---,0.01,VWS V14.01,2013-01-20 16:31:00,
2013-01-20 11:32:00,51.7,37.8,30.23,West,269,5.0,10.0,59,0.00,,---,0.01,VWS V14.01,2013-01-20 16:32:00,
2013-01-20 12:08:00,51.7,37.8,30.23,West,269,5.0,10.0,59,0.00,,---,0.01,VWS V14.01,2013-01-20 17:08:00,
2013-01-20 12:13:00,54.5,40.0,30.20,WSW,253,4.0,10.0,58,0.00,,---,0.01,VWS V14.01,2013-01-20 17:13:00,
2013-01-20 12:18:00,54.8,39.4,30.20,West,269,9.0,12.0,56,0.00,,---,0.01,VWS V14.01,2013-01-20 17:18:00,
2013-01-20 12:23:00,54.6,39.2,30.20,West,268,4.0,12.0,56,0.00,,---,0.01,VWS V14.01,2013-01-20 17:23:00,
2013-01-20 12:28:00,54.9,39.5,30.19,SW,217,2.0,12.0,56,0.00,,---,0.01,VWS V14.01,2013-01-20 17:28:00,
2013-01-20 12:33:00,55.9,40.5,30.18,WSW,242,3.0,12.0,56,0.00,,---,0.01,VWS V14.01,2013-01-20 17:33:00,
2013-01-20 13:30:00,61.5,40.5,30.13,West,265,10.0,13.0,46,0.00,,---,0.01,VWS V14.01,2013-01-20 18:30:00,
2013-01-20 14:00:00,62.4,40.2,30.13,West,267,9.0,13.0,44,0.00,,---,0.01,VWS V14.01,2013-01-20 19:00:00,
2013-01-20 14:11:00,61.2,41.9,30.14,West,272,7.0,11.0,49,0.00,,---,0.01,VWS V14.01,2013-01-20 19:11:00,
2013-01-20 14:16:00,61.5,41.7,30.14,West,275,1.0,11.0,48,0.00,,---,0.01,VWS V14.01,2013-01-20 19:16:00,
2013-01-20 14:21:00,61.3,41.5,30.14,West,267,12.0,12.0,48,0.00,,---,0.01,VWS V14.01,2013-01-20 19:21:00,
2013-01-20 14:26:00,61.2,41.4,30.14,West,265,3.0,12.0,48,0.00,,---,0.01,VWS V14.01,2013-01-20 19:26:00,
2013-01-20 14:31:00,61.7,41.3,30.13,West,274,6.0,13.0,47,0.00,,---,0.01,VWS V14.01,2013-01-20 19:31:00,
2013-01-20 14:36:00,61.2,40.3,30.13,West,272,5.0,13.0,46,0.00,,---,0.01,VWS V14.01,2013-01-20 19:36:00,
2013-01-20 14:41:00,61.7,40.7,30.13,West,271,3.0,13.0,46,0.00,,---,0.01,VWS V14.01,2013-01-20 19:41:00,
2013-01-20 14:46:00,62.3,41.3,30.13,West,259,10.0,13.0,46,0.00,,---,0.01,VWS V14.01,2013-01-20 19:46:00,
2013-01-20 14:51:00,62.3,40.1,30.13,West,260,4.0,13.0,44,0.00,,---,0.01,VWS V14.01,2013-01-20 19:51:00,
2013-01-20 14:56:00,62.5,40.3,30.13,West,267,6.0,13.0,44,0.00,,---,0.01,VWS V14.01,2013-01-20 19:56:00,
2013-01-20 15:01:00,62.5,40.3,30.12,WSW,258,9.0,13.0,44,0.00,,---,0.01,VWS V14.01,2013-01-20 20:01:00,
2013-01-20 15:06:00,62.3,40.1,30.13,WSW,256,10.0,13.0,44,0.00,,---,0.01,VWS V14.01,2013-01-20 20:06:00,
2013-01-20 15:11:00,61.8,39.1,30.13,West,280,4.0,15.0,43,0.00,,---,0.01,VWS V14.01,2013-01-20 20:11:00,
2013-01-20 15:16:00,61.8,39.1,30.13,West,275,5.0,18.0,43,0.00,,---,0.01,VWS V14.01,2013-01-20 20:16:00,
2013-01-20 15:30:00,61.5,37.6,30.13,WSW,240,5.0,18.0,41,0.00,,---,0.01,VWS V14.01,2013-01-20 20:30:00,
2013-01-20 16:15:00,61.5,38.2,30.13,West,267,4.0,18.0,42,0.00,,---,0.01,VWS V14.01,2013-01-20 21:15:00,
2013-01-20 16:20:00,61.7,38.4,30.13,West,271,6.0,18.0,42,0.00,,---,0.01,VWS V14.01,2013-01-20 21:20:00,
2013-01-20 16:25:00,61.9,38.0,30.13,West,273,4.0,18.0,41,0.00,,---,0.01,VWS V14.01,2013-01-20 21:25:00,
2013-01-20 16:30:00,61.6,37.7,30.13,West,271,3.0,18.0,41,0.00,,---,0.01,VWS V14.01,2013-01-20 21:30:00,
2013-01-20 16:35:00,61.5,37.6,30.13,West,275,11.0,13.0,41,0.00,,---,0.01,VWS V14.01,2013-01-20 21:35:00,
2013-01-20 16:40:00,61.2,38.0,30.13,West,273,1.0,13.0,42,0.00,,---,0.01,VWS V14.01,2013-01-20 21:40:00,
2013-01-20 17:15:00,60.9,37.7,30.12,West,273,5.0,13.0,42,0.00,,---,0.01,VWS V14.01,2013-01-20 22:15:00,
2013-01-20 17:20:00,59.0,36.6,30.13,West,271,6.0,13.0,43,0.00,,---,0.01,VWS V14.01,2013-01-20 22:20:00,
2013-01-20 17:25:00,58.7,36.9,30.13,West,264,6.0,13.0,44,0.00,,---,0.01,VWS V14.01,2013-01-20 22:25:00,
2013-01-20 17:30:00,58.4,37.2,30.13,West,264,5.0,13.0,45,0.00,,---,0.01,VWS V14.01,2013-01-20 22:30:00,
2013-01-20 17:35:00,58.1,37.5,30.13,West,261,6.0,9.0,46,0.00,,---,0.01,VWS V14.01,2013-01-20 22:35:00,
2013-01-20 17:40:00,57.7,37.6,30.13,West,265,3.0,10.0,47,0.00,,---,0.01,VWS V14.01,2013-01-20 22:40:00,
2013-01-20 18:00:00,51.6,37.3,30.15,West,267,0.0,3.0,58,0.00,,---,0.01,VWS V14.01,2013-01-20 23:00:00,
2013-01-20 18:17:00,57.4,37.9,30.13,West,264,0.0,10.0,48,0.00,,---,0.01,VWS V14.01,2013-01-20 23:17:00,
2013-01-20 18:22:00,54.6,37.3,30.14,West,267,2.0,10.0,52,0.00,,---,0.01,VWS V14.01,2013-01-20 23:22:00,
2013-01-20 18:27:00,54.5,37.2,30.14,West,267,2.0,10.0,52,0.00,,---,0.01,VWS V14.01,2013-01-20 23:27:00,
2013-01-20 18:30:00,47.1,36.3,30.15,West,267,0.0,1.0,66,0.00,,---,0.01,VWS V14.01,2013-01-20 23:30:00,
2013-01-20 18:32:00,54.2,37.0,30.14,West,267,1.0,10.0,52,0.00,,---,0.01,VWS V14.01,2013-01-20 23:32:00,
2013-01-20 18:37:00,53.9,37.2,30.14,West,267,0.0,3.0,53,0.00,,---,0.01,VWS V14.01,2013-01-20 23:37:00,
2013-01-20 18:42:00,53.5,37.3,30.14,West,267,1.0,3.0,54,0.00,,---,0.01,VWS V14.01,2013-01-20 23:42:00,
2013-01-20 18:47:00,53.1,37.4,30.15,West,267,0.0,3.0,55,0.00,,---,0.01,VWS V14.01,2013-01-20 23:47:00,
2013-01-20 18:52:00,52.7,37.0,30.15,West,267,0.0,3.0,55,0.00,,---,0.01,VWS V14.01,2013-01-20 23:52:00,
2013-01-20 18:57:00,52.3,37.1,30.15,West,267,0.0,3.0,56,0.00,,---,0.01,VWS V14.01,2013-01-20 23:57:00,
2013-01-20 19:02:00,51.8,37.1,30.15,West,267,0.0,3.0,57,0.00,,---,0.01,VWS V14.01,2013-01-21 00:02:00,
2013-01-20 19:07:00,51.1,37.3,30.15,West,267,0.0,1.0,59,0.00,,---,0.01,VWS V14.01,2013-01-21 00:07:00,
2013-01-20 19:12:00,50.1,37.2,30.15,West,267,0.0,1.0,61,0.00,,---,0.01,VWS V14.01,2013-01-21 00:12:00,
2013-01-20 19:17:00,49.3,37.2,30.15,West,267,0.0,1.0,63,0.00,,---,0.01,VWS V14.01,2013-01-21 00:17:00,
2013-01-20 19:22:00,48.6,37.0,30.15,West,267,0.0,1.0,64,0.00,,---,0.01,VWS V14.01,2013-01-21 00:22:00,
2013-01-20 19:27:00,48.0,36.8,30.15,West,267,0.0,1.0,65,0.00,,---,0.01,VWS V14.01,2013-01-21 00:27:00,
2013-01-20 19:30:00,41.5,35.8,30.15,West,267,0.0,0.0,80,0.00,,---,0.01,VWS V14.01,2013-01-21 00:30:00,
2013-01-20 19:32:00,47.3,36.5,30.15,West,267,0.0,1.0,66,0.00,,---,0.01,VWS V14.01,2013-01-21 00:32:00,
2013-01-20 19:37:00,46.7,36.7,30.15,West,267,0.0,0.0,68,0.00,,---,0.01,VWS V14.01,2013-01-21 00:37:00,
2013-01-20 19:42:00,46.1,36.1,30.15,West,267,0.0,0.0,68,0.00,,---,0.01,VWS V14.01,2013-01-21 00:42:00,
2013-01-20 19:47:00,45.5,36.3,30.15,West,267,0.0,0.0,70,0.00,,---,0.01,VWS V14.01,2013-01-21 00:47:00,
2013-01-20 20:21:00,42.3,36.3,30.15,West,267,0.0,0.0,79,0.00,,---,0.01,VWS V14.01,2013-01-21 01:21:00,
2013-01-20 20:26:00,42.0,36.3,30.15,West,267,0.0,0.0,80,0.00,,---,0.01,VWS V14.01,2013-01-21 01:26:00,
2013-01-20 20:31:00,41.7,36.0,30.16,West,267,0.0,0.0,80,0.00,,---,0.01,VWS V14.01,2013-01-21 01:31:00,
2013-01-20 20:36:00,41.4,36.0,30.16,West,267,0.0,0.0,81,0.00,,---,0.01,VWS V14.01,2013-01-21 01:36:00,
2013-01-20 20:41:00,41.1,35.7,30.16,West,267,0.0,0.0,81,0.00,,---,0.01,VWS V14.01,2013-01-21 01:41:00,
2013-01-20 20:46:00,41.0,35.9,30.16,West,267,0.0,0.0,82,0.00,,---,0.01,VWS V14.01,2013-01-21 01:46:00,
2013-01-20 21:00:00,37.8,34.6,30.15,West,267,0.0,0.0,88,0.00,,---,0.01,VWS V14.01,2013-01-21 02:00:00,
2013-01-20 21:30:00,36.8,33.9,30.15,West,267,0.0,0.0,89,0.00,,---,0.01,VWS V14.01,2013-01-21 02:30:00,
2013-01-20 21:52:00,40.8,36.0,30.16,West,267,0.0,0.0,83,0.00,,---,0.01,VWS V14.01,2013-01-21 02:52:00,
2013-01-20 21:57:00,37.8,34.6,30.15,West,267,0.0,0.0,88,0.00,,---,0.01,VWS V14.01,2013-01-21 02:57:00,
2013-01-20 22:00:00,35.7,32.8,30.15,West,267,0.0,0.0,89,0.00,,---,0.01,VWS V14.01,2013-01-21 03:00:00,
2013-01-20 22:02:00,37.9,34.7,30.15,West,267,0.0,0.0,88,0.00,,---,0.01,VWS V14.01,2013-01-21 03:02:00,
2013-01-20 22:07:00,37.6,34.4,30.15,West,267,0.0,0.0,88,0.00,,---,0.01,VWS V14.01,2013-01-21 03:07:00,
2013-01-20 22:12:00,37.4,34.2,30.15,West,267,0.0,0.0,88,0.00,,---,0.01,VWS V14.01,2013-01-21 03:12:00,
2013-01-20 22:17:00,37.2,34.0,30.15,West,267,0.0,0.0,88,0.00,,---,0.01,VWS V14.01,2013-01-21 03:17:00,
2013-01-20 22:22:00,37.1,34.2,30.15,West,267,0.0,0.0,89,0.00,,---,0.01,VWS V14.01,2013-01-21 03:22:00,
2013-01-20 22:27:00,37.1,34.2,30.15,West,267,0.0,0.0,89,0.00,,---,0.01,VWS V14.01,2013-01-21 03:27:00,
2013-01-20 22:30:00,34.8,32.2,30.15,West,267,0.0,0.0,90,0.00,,---,0.01,VWS V14.01,2013-01-21 03:30:00,
2013-01-20 22:32:00,36.9,34.0,30.15,West,267,0.0,0.0,89,0.00,,---,0.01,VWS V14.01,2013-01-21 03:32:00,
2013-01-20 22:37:00,36.6,33.7,30.15,West,267,0.0,0.0,89,0.00,,---,0.01,VWS V14.01,2013-01-21 03:37:00,
2013-01-20 22:42:00,36.3,33.4,30.15,West,267,0.0,0.0,89,0.00,,---,0.01,VWS V14.01,2013-01-21 03:42:00,
2013-01-20 22:47:00,36.3,33.4,30.15,West,267,0.0,0.0,89,0.00,,---,0.01,VWS V14.01,2013-01-21 03:47:00,
2013-01-20 22:52:00,36.1,33.2,30.15,West,267,0.0,0.0,89,0.00,,---,0.01,VWS V14.01,2013-01-21 03:52:00,
2013-01-20 22:57:00,35.9,33.0,30.15,West,267,0.0,0.0,89,0.00,,---,0.01,VWS V14.01,2013-01-21 03:57:00,
2013-01-20 23:02:00,35.7,32.8,30.15,West,267,0.0,0.0,89,0.00,,---,0.01,VWS V14.01,2013-01-21 04:02:00,
2013-01-20 23:26:00,35.1,32.5,30.15,West,267,0.0,0.0,90,0.00,,---,0.01,VWS V14.01,2013-01-21 04:26:00,
2013-01-20 23:31:00,34.9,32.3,30.15,West,267,0.0,0.0,90,0.00,,---,0.01,VWS V14.01,2013-01-21 04:31:00,
2013-01-20 23:36:00,34.7,32.1,30.15,West,267,0.0,0.0,90,0.00,,---,0.01,VWS V14.01,2013-01-21 04:36:00,
2013-01-20 23:41:00,34.7,32.1,30.15,West,267,0.0,0.0,90,0.00,,---,0.01,VWS V14.01,2013-01-21 04:41:00,
2013-01-20 23:47:00,34.6,32.2,30.15,West,267,0.0,0.0,91,0.00,,---,0.01,VWS V14.01,2013-01-21 04:47:00,
2013-01-20 23:52:00,34.5,32.2,30.15,West,267,0.0,0.0,91,0.00,,---,0.01,VWS V14.01,2013-01-21 04:52:00,